Time;durP1;ratioP1;P1;durP2;ratioP2;P2;SDS_P1;SDS_P2;PMS_P1;PMS_P2;Temp;Humidity;BMP_temperature;BMP_pressure;BME280_temperature;BME280_humidity;BME280_pressure;Samples;Min_cycle;Max_cycle;Signal;HPM_P1;HPM_P2
2022/09/20 00:01:09;;;;;;;2.65;1.60;;;10.80;99.90;;;;;;5034323;28;20021;-77
2022/09/20 00:03:37;;;;;;;6.70;1.58;;;10.80;99.90;;;;;;5034013;28;20045;-78
2022/09/20 00:06:04;;;;;;;3.75;1.23;;;10.80;99.90;;;;;;5035579;28;20466;-77
2022/09/20 00:08:30;;;;;;;4.18;1.70;;;10.80;99.90;;;;;;5036065;28;20075;-77
2022/09/20 00:11:01;;;;;;;3.47;1.40;;;10.80;99.90;;;;;;5037818;28;20108;-77
2022/09/20 00:13:27;;;;;;;2.00;1.17;;;10.80;99.90;;;;;;5037797;28;20032;-78
2022/09/20 00:15:53;;;;;;;1.42;1.23;;;10.70;99.90;;;;;;5036995;28;20026;-78
2022/09/20 00:18:18;;;;;;;1.55;1.20;;;10.70;99.90;;;;;;5037688;28;20079;-77
2022/09/20 00:20:46;;;;;;;2.30;1.08;;;10.70;99.90;;;;;;5036089;28;20034;-77
2022/09/20 00:23:11;;;;;;;2.30;1.35;;;10.70;99.90;;;;;;5033696;28;20079;-77
2022/09/20 00:25:38;;;;;;;1.40;1.20;;;10.70;99.90;;;;;;5033008;28;20029;-77
2022/09/20 00:28:04;;;;;;;3.80;1.05;;;10.70;99.90;;;;;;5032940;28;20560;-78
2022/09/20 00:30:32;;;;;;;3.10;1.20;;;10.60;99.90;;;;;;5033978;28;20029;-76
2022/09/20 00:32:58;;;;;;;2.15;1.27;;;10.60;99.90;;;;;;5034360;28;20029;-77
2022/09/20 00:35:24;;;;;;;2.53;1.48;;;10.50;99.90;;;;;;5036308;28;20026;-77
2022/09/20 00:37:49;;;;;;;5.63;1.50;;;10.50;99.90;;;;;;5038037;28;20037;-77
2022/09/20 00:40:20;;;;;;;5.13;1.42;;;10.40;99.90;;;;;;5036226;28;20025;-77
2022/09/20 00:42:47;;;;;;;4.82;1.35;;;10.40;99.90;;;;;;5037378;28;20025;-77
2022/09/20 00:45:24;;;;;;;4.18;1.42;;;10.40;99.90;;;;;;5036279;28;20122;-77
2022/09/20 00:48:18;;;;;;;3.95;1.30;;;10.40;99.90;;;;;;5036450;28;20132;-76
2022/09/20 00:50:48;;;;;;;1.55;1.23;;;10.30;99.90;;;;;;5036253;28;20087;-77
2022/09/20 00:53:16;;;;;;;3.03;1.05;;;10.30;99.90;;;;;;5037028;28;20500;-77
2022/09/20 00:55:50;;;;;;;2.55;1.13;;;10.30;99.90;;;;;;5035785;28;20021;-77
2022/09/20 00:58:18;;;;;;;3.30;1.40;;;10.20;99.90;;;;;;5036326;28;20377;-77
2022/09/20 01:00:45;;;;;;;1.38;1.00;;;10.20;99.90;;;;;;5035585;28;20025;-76
2022/09/20 01:03:12;;;;;;;4.57;1.27;;;10.20;99.90;;;;;;5035534;28;20112;-77
2022/09/20 01:05:40;;;;;;;3.40;1.17;;;10.30;99.90;;;;;;5035684;28;20040;-77
2022/09/20 01:08:06;;;;;;;1.55;1.17;;;10.30;99.90;;;;;;5035532;28;20409;-77
2022/09/20 01:10:32;;;;;;;2.80;1.35;;;10.30;99.90;;;;;;5035508;28;20025;-76
2022/09/20 01:12:58;;;;;;;1.83;1.30;;;10.40;99.90;;;;;;5035315;28;20022;-77
2022/09/20 01:15:27;;;;;;;2.53;1.20;;;10.50;99.90;;;;;;5035484;28;20120;-76
2022/09/20 01:17:54;;;;;;;;;;;10.50;99.90;;;;;;5035404;28;20087;-77
2022/09/20 01:20:35;;;;;;;3.00;1.38;;;10.50;99.90;;;;;;5035580;28;20349;-76
2022/09/20 01:23:19;;;;;;;2.38;1.38;;;10.60;99.90;;;;;;5035855;28;20071;-77
2022/09/20 01:26:06;;;;;;;3.50;1.70;;;10.60;99.90;;;;;;5035239;28;20036;-77
2022/09/20 01:28:32;;;;;;;5.45;1.17;;;10.60;99.90;;;;;;5036303;28;20448;-77
2022/09/20 01:31:01;;;;;;;3.45;1.35;;;10.60;99.90;;;;;;5035279;28;20032;-77
2022/09/20 01:33:40;;;;;;;1.27;1.10;;;10.50;99.90;;;;;;5034784;28;20130;-77
2022/09/20 01:36:11;;;;;;;3.28;1.25;;;10.50;99.90;;;;;;5035428;28;20040;-76
2022/09/20 01:39:04;;;;;;;1.38;1.17;;;10.50;99.90;;;;;;5034810;28;20036;-76
2022/09/20 01:41:49;;;;;;;1.63;1.27;;;10.50;99.90;;;;;;5036053;28;20061;-76
2022/09/20 01:44:36;;;;;;;3.25;1.25;;;10.50;99.90;;;;;;5033839;28;20030;-76
2022/09/20 01:47:25;;;;;;;2.47;1.23;;;10.40;99.90;;;;;;5034700;28;20072;-76
2022/09/20 01:50:06;;;;;;;2.35;1.30;;;10.40;99.90;;;;;;5034947;28;20033;-77
2022/09/20 01:52:53;;;;;;;3.50;1.20;;;10.40;99.90;;;;;;5034539;28;20064;-76
2022/09/20 01:55:31;;;;;;;2.20;1.13;;;10.30;99.90;;;;;;5035469;28;20037;-77
2022/09/20 01:58:32;;;;;;;2.97;1.55;;;10.40;99.90;;;;;;5034920;28;20473;-76
2022/09/20 02:01:03;;;;;;;4.72;1.48;;;10.40;99.90;;;;;;5030384;28;20481;-76
2022/09/20 02:03:54;;;;;;;2.85;1.20;;;10.30;99.90;;;;;;5034458;28;20046;-76
2022/09/20 02:06:36;;;;;;;2.60;1.13;;;10.30;99.90;;;;;;5033906;28;20040;-76
2022/09/20 02:09:49;;;;;;;4.38;1.60;;;10.30;99.90;;;;;;5034168;28;20470;-76
2022/09/20 02:12:29;;;;;;;0.93;0.90;;;10.30;99.90;;;;;;5029939;28;20041;-76
2022/09/20 02:15:13;;;;;;;2.13;1.20;;;10.20;99.90;;;;;;5034408;28;20033;-76
2022/09/20 02:17:53;;;;;;;1.35;1.20;;;10.20;99.90;;;;;;5034472;28;20377;-76
2022/09/20 02:20:51;;;;;;;2.17;1.20;;;10.20;99.90;;;;;;5034029;28;20109;-76
2022/09/20 02:23:39;;;;;;;1.50;1.00;;;10.20;99.90;;;;;;5034043;28;20028;-76
2022/09/20 02:26:26;;;;;;;2.75;1.52;;;10.10;99.90;;;;;;5034128;28;20203;-76
2022/09/20 02:29:07;;;;;;;1.98;1.10;;;10.10;99.90;;;;;;5033802;28;20036;-76
2022/09/20 02:32:07;;;;;;;1.58;1.30;;;10.10;99.90;;;;;;5034344;28;20029;-76
2022/09/20 02:35:13;;;;;;;3.53;1.15;;;10.20;99.90;;;;;;5035415;28;20053;-76
2022/09/20 02:37:56;;;;;;;1.67;0.90;;;10.20;99.90;;;;;;5035246;28;20234;-76
2022/09/20 02:40:49;;;;;;;1.85;1.02;;;10.20;99.90;;;;;;5033704;28;20026;-76
2022/09/20 02:43:57;;;;;;;1.75;0.93;;;10.30;99.90;;;;;;5033597;28;20030;-76
2022/09/20 02:46:51;;;;;;;1.42;1.33;;;10.40;99.90;;;;;;5033809;28;20037;-76
2022/09/20 02:49:19;;;;;;;2.78;1.40;;;10.40;99.90;;;;;;5034739;28;20029;-76
2022/09/20 02:51:57;;;;;;;3.00;1.27;;;10.40;99.90;;;;;;5033396;28;20120;-76
2022/09/20 02:54:40;;;;;;;2.05;1.35;;;10.40;99.90;;;;;;5033646;28;20664;-76
2022/09/20 02:57:24;;;;;;;3.40;1.70;;;10.40;99.90;;;;;;5033160;28;20025;-76
2022/09/20 03:00:01;;;;;;;4.20;1.50;;;10.30;99.90;;;;;;5033213;28;20029;-76
2022/09/20 03:02:45;;;;;;;3.53;2.03;;;10.30;99.90;;;;;;5034626;28;20466;-76
2022/09/20 03:05:11;;;;;;;2.95;2.08;;;10.30;99.90;;;;;;5033155;28;20049;-76
2022/09/20 03:08:02;;;;;;;2.50;2.30;;;10.30;99.90;;;;;;5033304;28;20128;-76
2022/09/20 03:10:27;;;;;;;2.55;2.03;;;10.30;99.90;;;;;;5033201;28;20393;-76
2022/09/20 03:13:27;;;;;;;5.88;2.22;;;10.20;99.90;;;;;;5033356;28;20029;-76
2022/09/20 03:16:17;;;;;;;5.45;2.72;;;10.20;99.90;;;;;;5033979;28;20025;-76
2022/09/20 03:18:50;;;;;;;5.20;2.75;;;10.10;99.90;;;;;;5033961;28;20026;-76
2022/09/20 03:21:53;;;;;;;5.60;3.22;;;10.10;99.90;;;;;;5032974;28;20026;-76
2022/09/20 03:24:31;;;;;;;4.47;2.83;;;10.10;99.90;;;;;;5054172;28;20053;-76
2022/09/20 03:27:33;;;;;;;6.93;2.75;;;10.20;99.90;;;;;;5032831;28;20540;-76
2022/09/20 03:30:36;;;;;;;3.63;2.88;;;10.20;99.90;;;;;;5032848;28;20025;-76
2022/09/20 03:33:34;;;;;;;5.80;3.25;;;10.20;99.90;;;;;;5033072;28;20033;-76
2022/09/20 03:36:25;;;;;;;4.65;3.03;;;10.20;99.90;;;;;;5033930;28;20022;-76
2022/09/20 03:39:01;;;;;;;5.40;2.75;;;10.20;99.90;;;;;;5033618;28;20029;-76
2022/09/20 03:41:36;;;;;;;3.35;3.10;;;10.20;99.90;;;;;;5035064;28;20064;-76
2022/09/20 03:44:15;;;;;;;6.75;2.85;;;10.20;99.90;;;;;;5035988;28;20025;-75
2022/09/20 03:46:46;;;;;;;6.10;2.63;;;10.10;99.90;;;;;;5034152;28;20037;-75
2022/09/20 03:49:49;;;;;;;5.35;3.40;;;10.00;99.90;;;;;;5035638;28;20385;-76
2022/09/20 03:52:36;;;;;;;5.78;3.47;;;10.00;99.90;;;;;;5037059;28;20036;-75
2022/09/20 03:55:23;;;;;;;5.72;4.07;;;9.90;99.90;;;;;;5036728;28;20026;-75
2022/09/20 03:58:10;;;;;;;5.57;4.28;;;9.90;99.90;;;;;;5036514;28;20033;-75
2022/09/20 04:01:08;;;;;;;6.43;4.53;;;9.80;99.90;;;;;;5037321;28;20037;-76
2022/09/20 04:03:33;;;;;;;5.67;4.80;;;9.80;99.90;;;;;;5040720;28;20037;-80
2022/09/20 04:06:17;;;;;;;5.38;4.88;;;9.60;99.90;;;;;;5036957;28;20045;-75
2022/09/20 04:09:01;;;;;;;6.72;4.35;;;9.60;99.90;;;;;;5039822;28;20470;-76
2022/09/20 04:11:35;;;;;;;6.45;4.55;;;9.60;99.90;;;;;;5038135;28;20362;-76
2022/09/20 04:14:33;;;;;;;6.10;4.00;;;9.50;99.90;;;;;;5037150;28;20025;-79
2022/09/20 04:17:34;;;;;;;10.02;4.35;;;9.50;99.90;;;;;;5037131;28;20030;-76
2022/09/20 04:20:26;;;;;;;5.88;4.30;;;9.50;99.90;;;;;;5034620;28;20022;-76
2022/09/20 04:22:56;;;;;;;8.40;4.57;;;9.50;99.90;;;;;;5069079;28;20040;-77
2022/09/20 04:25:36;;;;;;;4.20;3.78;;;9.50;99.90;;;;;;5039533;28;20026;-77
2022/09/20 04:28:18;;;;;;;6.55;4.03;;;9.50;99.90;;;;;;5042062;28;20034;-77
2022/09/20 04:30:45;;;;;;;7.45;3.85;;;9.50;99.90;;;;;;5039593;28;20025;-78
2022/09/20 04:33:18;;;;;;;5.43;3.72;;;9.40;99.90;;;;;;5038776;28;20022;-76
2022/09/20 04:36:30;;;;;;;6.25;4.38;;;9.40;99.90;;;;;;5039420;28;20021;-78
2022/09/20 04:39:27;;;;;;;5.53;3.28;;;9.40;99.90;;;;;;5036617;28;20021;-57
2022/09/20 04:42:33;;;;;;;4.72;2.95;;;9.50;99.90;;;;;;5037343;28;20535;-74
2022/09/20 04:45:36;;;;;;;3.60;2.95;;;9.70;99.90;;;;;;5037462;28;20032;-77
2022/09/20 04:48:41;;;;;;;4.40;3.40;;;9.60;99.90;;;;;;5048621;28;20084;-77
2022/09/20 04:51:25;;;;;;;4.13;3.55;;;9.50;99.90;;;;;;5036169;28;20037;-79
2022/09/20 04:54:24;;;;;;;4.47;3.08;;;9.50;99.90;;;;;;5036391;28;20109;-78
2022/09/20 04:57:12;;;;;;;7.68;4.07;;;9.50;99.90;;;;;;5036169;28;20061;-78
2022/09/20 05:00:03;;;;;;;4.65;3.92;;;9.50;99.90;;;;;;5035865;28;20025;-79
2022/09/20 05:02:41;;;;;;;5.85;4.03;;;9.50;99.90;;;;;;5035332;28;20099;-78
2022/09/20 05:05:34;;;;;;;8.30;4.50;;;9.50;99.90;;;;;;5035828;28;20060;-78
2022/09/20 05:08:22;;;;;;;4.95;3.60;;;9.60;99.90;;;;;;5036258;28;20292;-78
2022/09/20 05:10:50;;;;;;;4.28;3.60;;;9.60;99.90;;;;;;5036341;28;20350;-79
2022/09/20 05:13:38;;;;;;;6.13;4.38;;;9.60;99.90;;;;;;5035460;28;20044;-78
2022/09/20 05:19:27;;;;;;;6.72;4.10;;;9.60;99.90;;;;;;5036514;28;20032;-79
2022/09/20 05:22:23;;;;;;;6.32;3.65;;;9.60;99.90;;;;;;5034650;28;20101;-79
2022/09/20 05:25:10;;;;;;;5.43;4.07;;;9.60;99.90;;;;;;5034298;28;20033;-78
2022/09/20 05:31:52;;;;;;;6.75;3.85;;;9.60;99.90;;;;;;5054644;28;20131;-78
2022/09/20 05:34:33;;;;;;;6.38;4.22;;;9.60;99.90;;;;;;5070616;28;20067;-78
2022/09/20 05:37:11;;;;;;;11.65;4.60;;;9.60;99.90;;;;;;5070784;28;20029;-78
2022/09/20 05:39:56;;;;;;;8.07;4.70;;;9.60;99.90;;;;;;5070713;28;20048;-78
2022/09/20 05:42:46;;;;;;;6.57;4.40;;;9.60;99.90;;;;;;5070669;28;20477;-78
2022/09/20 05:49:06;;;;;;;5.63;4.43;;;9.60;99.90;;;;;;5053904;28;20079;-78
2022/09/20 05:54:58;;;;;;;7.88;4.63;;;9.60;99.90;;;;;;5054151;28;20546;-79
2022/09/20 06:01:06;;;;;;;6.72;4.28;;;9.60;99.90;;;;;;5050926;28;20029;-79
2022/09/20 06:03:54;;;;;;;8.07;4.57;;;9.60;99.90;;;;;;5031856;28;20052;-79
2022/09/20 06:06:55;;;;;;;6.20;4.25;;;9.70;99.90;;;;;;5035211;28;20076;-78
2022/09/20 06:13:24;;;;;;;8.65;4.55;;;9.70;99.90;;;;;;5035538;28;20401;-78
2022/09/20 06:16:04;;;;;;;4.97;4.47;;;9.80;99.90;;;;;;5035258;28;20025;-79
2022/09/20 06:19:13;;;;;;;8.98;5.03;;;9.80;99.90;;;;;;5035576;28;20466;-78
2022/09/20 06:22:06;;;;;;;6.25;4.53;;;9.90;99.90;;;;;;5035130;28;20030;-78
2022/09/20 06:28:15;;;;;;;7.97;5.53;;;10.00;99.90;;;;;;5035314;28;20115;-79
2022/09/20 06:30:53;;;;;;;11.00;5.28;;;10.00;99.90;;;;;;5033709;28;20029;-79
2022/09/20 06:33:21;;;;;;;6.32;4.82;;;10.00;99.90;;;;;;5035438;28;20025;-79
2022/09/20 06:41:25;;;;;;;6.03;5.00;;;10.00;99.90;;;;;;5034254;28;20037;-78
2022/09/20 06:41:35;;;;;;;6.97;5.40;;;10.10;99.90;;;;;;5035220;28;20035;-79
2022/09/20 06:55:12;;;;;;;10.55;3.80;;;10.60;99.90;;;;;;5040979;28;20036;-80
2022/09/20 07:01:36;;;;;;;6.50;3.30;;;11.00;99.90;;;;;;5047102;28;20028;-81
2022/09/20 07:11:31;;;;;;;5.80;3.22;;;10.90;99.90;;;;;;5069002;28;20492;-78
2022/09/20 07:14:01;;;;;;;4.30;3.90;;;10.80;99.90;;;;;;5037059;28;20039;-78
2022/09/20 07:16:27;;;;;;;4.68;3.65;;;10.70;99.90;;;;;;5037417;28;20033;-78
2022/09/20 07:18:53;;;;;;;4.80;3.63;;;10.70;99.90;;;;;;5054041;28;20028;-78
2022/09/20 07:21:19;;;;;;;7.05;4.30;;;10.70;99.90;;;;;;5036616;28;20112;-78
2022/09/20 07:23:47;;;;;;;5.60;3.58;;;10.80;99.90;;;;;;5036572;28;20033;-78
2022/09/20 07:26:19;;;;;;;5.75;3.70;;;10.90;99.90;;;;;;5036702;28;20029;-77
2022/09/20 07:28:51;;;;;;;7.45;4.15;;;11.00;99.90;;;;;;5054598;28;20116;-78
2022/09/20 07:34:58;;;;;;;4.90;4.25;;;11.00;99.90;;;;;;5054390;28;20028;-79
2022/09/20 07:38:03;;;;;;;7.22;4.60;;;11.10;99.90;;;;;;5036194;28;20115;-78
2022/09/20 07:40:29;;;;;;;5.75;4.25;;;11.20;99.90;;;;;;5036261;28;20104;-78
2022/09/20 07:42:56;;;;;;;7.90;4.25;;;11.50;99.90;;;;;;5054433;28;20059;-78
2022/09/20 07:45:22;;;;;;;5.32;4.22;;;11.70;99.90;;;;;;5036434;28;20028;-77
2022/09/20 07:47:48;;;;;;;9.18;3.67;;;11.90;99.90;;;;;;5054377;28;20029;-78
2022/09/20 07:50:14;;;;;;;5.18;3.70;;;12.00;99.90;;;;;;5054851;28;20040;-79
2022/09/20 07:52:40;;;;;;;5.85;3.85;;;12.00;99.90;;;;;;5070463;28;20029;-78
2022/09/20 07:55:06;;;;;;;5.35;3.97;;;11.80;99.90;;;;;;5036602;28;20032;-78
2022/09/20 07:57:36;;;;;;;5.13;4.18;;;11.80;99.90;;;;;;5054035;28;20103;-78
2022/09/20 08:00:06;;;;;;;7.50;4.00;;;11.90;99.90;;;;;;5037098;28;20119;-79
2022/09/20 08:02:31;;;;;;;3.67;3.35;;;12.20;99.90;;;;;;5038383;28;20103;-78
2022/09/20 08:04:57;;;;;;;6.28;4.00;;;12.20;99.90;;;;;;5055455;28;20072;-78
2022/09/20 08:07:23;;;;;;;5.13;3.42;;;12.30;99.90;;;;;;5036811;28;20188;-78
2022/09/20 08:09:49;;;;;;;5.28;2.90;;;12.40;99.90;;;;;;5036946;28;20029;-77
2022/09/20 08:12:17;;;;;;;3.42;3.20;;;12.20;99.90;;;;;;5036199;28;20029;-78
2022/09/20 08:14:43;;;;;;;3.27;2.97;;;12.30;99.90;;;;;;5054853;28;20017;-78
2022/09/20 08:17:10;;;;;;;5.88;3.28;;;12.40;99.90;;;;;;5037100;28;20083;-78
2022/09/20 08:19:38;;;;;;;3.67;2.65;;;12.40;99.90;;;;;;5069537;28;20469;-78
2022/09/20 08:22:05;;;;;;;7.38;3.33;;;12.30;99.90;;;;;;5071189;28;20377;-78
2022/09/20 08:24:31;;;;;;;3.35;2.88;;;12.30;99.90;;;;;;5070681;28;20029;-78
2022/09/20 08:26:57;;;;;;;3.25;2.72;;;12.30;99.90;;;;;;5055437;28;20060;-79
2022/09/20 08:29:24;;;;;;;3.05;2.08;;;12.50;99.90;;;;;;5039208;28;20079;-78
2022/09/20 08:31:50;;;;;;;6.75;2.35;;;12.70;99.90;;;;;;5036374;28;20025;-79
2022/09/20 08:34:17;;;;;;;4.10;2.35;;;13.10;99.90;;;;;;5035672;28;20029;-79
2022/09/20 08:36:50;;;;;;;2.95;1.90;;;13.60;99.90;;;;;;5053136;28;20350;-78
2022/09/20 08:39:17;;;;;;;3.70;2.45;;;13.60;99.90;;;;;;5068761;28;20051;-78
2022/09/20 08:42:08;;;;;;;3.67;2.05;;;13.50;99.90;;;;;;5053594;28;20033;-78
2022/09/20 08:44:45;;;;;;;3.08;1.77;;;13.20;99.90;;;;;;5036081;28;20025;-77
2022/09/20 08:47:21;;;;;;;2.80;1.63;;;13.30;99.90;;;;;;5053360;28;20483;-78
2022/09/20 08:49:49;;;;;;;2.13;1.80;;;13.80;99.90;;;;;;5035337;28;20029;-78
2022/09/20 08:52:35;;;;;;;1.48;1.38;;;13.90;99.90;;;;;;5053323;28;20524;-77
2022/09/20 08:55:01;;;;;;;1.98;1.38;;;13.80;99.90;;;;;;5038604;28;20035;-78
2022/09/20 08:57:32;;;;;;;2.78;1.00;;;14.10;99.90;;;;;;5038970;28;20385;-78
2022/09/20 09:00:00;;;;;;;1.42;1.10;;;14.10;99.90;;;;;;5056738;28;20032;-78
2022/09/20 09:02:30;;;;;;;2.55;1.00;;;14.00;99.90;;;;;;5038733;28;20028;-78
2022/09/20 09:04:55;;;;;;;1.98;1.00;;;14.20;99.90;;;;;;5056636;28;20103;-78
2022/09/20 09:07:23;;;;;;;1.83;1.20;;;14.80;99.90;;;;;;5057019;28;20081;-78
2022/09/20 09:09:52;;;;;;;2.13;1.15;;;14.70;99.90;;;;;;5058158;28;20083;-77
2022/09/20 09:12:27;;;;;;;5.97;1.13;;;14.40;99.90;;;;;;5039048;28;20027;-78
2022/09/20 09:14:58;;;;;;;1.85;1.08;;;15.00;99.90;;;;;;5038920;28;20388;-78
2022/09/20 09:17:27;;;;;;;2.13;1.13;;;15.60;99.90;;;;;;5039846;28;20119;-79
2022/09/20 09:19:57;;;;;;;;;;;16.10;99.90;;;;;;5041676;28;20377;-78
2022/09/20 09:22:43;;;;;;;1.15;1.08;;;16.00;99.90;;;;;;5073264;28;19930;-77
2022/09/20 09:25:33;;;;;;;1.35;0.55;;;15.90;99.90;;;;;;5058051;28;20367;-77
2022/09/20 09:28:12;;;;;;;2.58;0.85;;;15.50;99.90;;;;;;5040080;28;20502;-77
2022/09/20 09:30:43;;;;;;;3.17;0.65;;;15.20;99.90;;;;;;5038151;28;20033;-77
2022/09/20 09:33:27;;;;;;;0.93;0.40;;;15.00;99.90;;;;;;5038274;28;20024;-77
2022/09/20 09:36:13;;;;;;;1.02;0.40;;;15.00;99.90;;;;;;5038305;28;20028;-77
2022/09/20 09:38:43;;;;;;;1.10;0.40;;;14.80;99.90;;;;;;5055944;28;20032;-77
2022/09/20 09:41:28;;;;;;;2.88;0.70;;;14.50;99.90;;;;;;5037995;28;20033;-78
2022/09/20 09:44:05;;;;;;;3.50;0.63;;;14.10;99.90;;;;;;5037968;28;20029;-77
2022/09/20 09:46:33;;;;;;;1.17;0.80;;;13.70;99.90;;;;;;5038420;28;20029;-77
2022/09/20 09:49:15;;;;;;;1.60;0.77;;;13.50;99.90;;;;;;5055749;28;20025;-78
2022/09/20 09:52:12;;;;;;;1.83;0.90;;;13.10;99.90;;;;;;5038614;28;20025;-77
2022/09/20 09:54:51;;;;;;;1.05;0.73;;;13.30;99.90;;;;;;5055819;28;20031;-77
2022/09/20 09:57:45;;;;;;;1.55;0.90;;;15.00;99.90;;;;;;5037959;28;20029;-78
2022/09/20 10:00:31;;;;;;;1.20;0.75;;;16.10;99.90;;;;;;5039008;28;20021;-77
2022/09/20 10:03:09;;;;;;;2.78;0.90;;;16.20;99.90;;;;;;5056421;28;20322;-77
2022/09/20 10:06:03;;;;;;;3.30;1.00;;;15.90;99.90;;;;;;5036432;28;20079;-77
2022/09/20 10:08:29;;;;;;;1.73;1.02;;;15.50;99.90;;;;;;5037527;28;20061;-77
2022/09/20 10:11:00;;;;;;;1.48;0.68;;;15.20;99.90;;;;;;5037484;28;20060;-77
2022/09/20 10:13:46;;;;;;;4.00;0.88;;;15.80;99.90;;;;;;5037368;28;20504;-76
2022/09/20 10:16:51;;;;;;;1.10;0.60;;;16.20;99.90;;;;;;5037829;28;20059;-77
2022/09/20 10:19:36;;;;;;;1.65;0.50;;;16.20;99.90;;;;;;5007079;28;20036;-77
2022/09/20 10:22:10;;;;;;;2.83;0.60;;;16.00;99.90;;;;;;5037238;28;20036;-77
2022/09/20 10:24:54;;;;;;;3.92;1.08;;;15.80;99.90;;;;;;5037585;28;20083;-77
2022/09/20 10:27:38;;;;;;;2.55;0.85;;;15.30;99.90;;;;;;5038173;28;20040;-76
2022/09/20 10:30:12;;;;;;;1.35;0.57;;;13.90;99.90;;;;;;5037694;28;20029;-76
2022/09/20 10:33:01;;;;;;;1.55;0.50;;;12.80;99.90;;;;;;5037411;28;20032;-76
2022/09/20 10:35:45;;;;;;;;;;;12.00;99.90;;;;;;5037810;28;20025;-77
2022/09/20 10:38:15;;;;;;;4.13;0.73;;;11.60;99.90;;;;;;5070009;28;19996;-77
2022/09/20 10:44:05;;;;;;;1.85;0.50;;;11.30;99.90;;;;;;5008295;28;20032;-76
2022/09/20 10:46:55;;;;;;;2.25;0.73;;;11.20;99.90;;;;;;5037647;28;20124;-78
2022/09/20 10:49:42;;;;;;;0.90;0.50;;;11.20;99.90;;;;;;5056011;28;20116;-77
2022/09/20 10:52:33;;;;;;;1.27;0.40;;;11.40;99.90;;;;;;5039552;28;20021;-78
2022/09/20 10:55:25;;;;;;;3.05;0.50;;;11.50;99.90;;;;;;5039916;28;20021;-78
2022/09/20 10:58:10;;;;;;;2.50;0.47;;;11.50;99.90;;;;;;5038803;28;20128;-77
2022/09/20 11:00:52;;;;;;;0.52;0.40;;;11.60;99.90;;;;;;5038110;28;20036;-77
2022/09/20 11:03:24;;;;;;;3.22;0.73;;;11.80;99.90;;;;;;5037353;28;20440;-78
2022/09/20 11:06:14;;;;;;;3.03;0.88;;;12.60;99.90;;;;;;5036787;28;20078;-78
2022/09/20 11:08:42;;;;;;;1.55;0.35;;;13.80;99.90;;;;;;5036468;28;20560;-78
2022/09/20 11:11:18;;;;;;;2.40;0.30;;;14.90;99.90;;;;;;5054160;28;20021;-78
2022/09/20 11:14:05;;;;;;;0.70;0.20;;;16.40;99.90;;;;;;5036605;28;20108;-78
2022/09/20 11:16:50;;;;;;;0.50;0.20;;;17.30;99.90;;;;;;5036252;28;20107;-78
2022/09/20 11:19:25;;;;;;;1.02;0.32;;;16.60;99.90;;;;;;5036168;28;20035;-78
2022/09/20 11:22:13;;;;;;;2.45;0.45;;;16.20;99.90;;;;;;5036215;28;20413;-78
2022/09/20 11:25:01;;;;;;;1.15;0.30;;;16.00;99.90;;;;;;5036088;28;20481;-78
2022/09/20 11:27:41;;;;;;;1.17;0.35;;;16.20;99.90;;;;;;5036527;28;20037;-79
2022/09/20 11:30:18;;;;;;;2.70;0.90;;;15.50;99.90;;;;;;5036241;28;20123;-78
2022/09/20 11:32:46;;;;;;;3.42;0.80;;;14.60;99.90;;;;;;5056435;28;20101;-78
2022/09/20 11:35:38;;;;;;;3.35;0.88;;;13.50;99.90;;;;;;5041609;28;20021;-75
2022/09/20 11:38:13;;;;;;;2.42;0.60;;;12.50;99.90;;;;;;5033081;28;20382;-75
2022/09/20 11:41:04;;;;;;;2.47;0.63;;;11.80;99.90;;;;;;5054192;28;20033;-76
2022/09/20 11:43:31;;;;;;;1.80;0.50;;;11.40;99.90;;;;;;5036784;28;20432;-77
2022/09/20 11:46:05;;;;;;;2.60;0.98;;;11.30;99.90;;;;;;5053903;28;20029;-77
2022/09/20 11:48:38;;;;;;;5.22;1.27;;;11.30;99.90;;;;;;5037930;28;20032;-77
2022/09/20 11:51:23;;;;;;;2.95;0.85;;;11.70;99.90;;;;;;5056584;28;20112;-78
2022/09/20 11:54:47;;;;;;;4.22;0.60;;;12.10;99.90;;;;;;5036482;28;20032;-79
2022/09/20 11:57:15;;;;;;;2.75;0.60;;;12.20;99.90;;;;;;5014148;28;20131;-78
2022/09/20 11:59:49;;;;;;;3.55;1.02;;;12.10;99.90;;;;;;5036053;28;20029;-79
2022/09/20 12:02:49;;;;;;;1.58;0.90;;;12.10;99.90;;;;;;5035613;28;20033;-78
2022/09/20 12:05:32;;;;;;;3.13;0.98;;;12.20;99.90;;;;;;5035947;28;20036;-78
2022/09/20 12:08:01;;;;;;;3.30;0.90;;;12.20;99.90;;;;;;5053331;28;20045;-80
2022/09/20 12:10:29;;;;;;;;;;;12.20;99.90;;;;;;5054064;28;20128;-79
2022/09/20 12:13:07;;;;;;;4.90;1.60;;;12.10;99.90;;;;;;5069083;28;19909;-80
2022/09/20 12:15:38;;;;;;;2.15;1.10;;;12.00;99.90;;;;;;5053645;28;20031;-78
2022/09/20 12:18:34;;;;;;;1.35;1.05;;;11.80;99.90;;;;;;5035901;28;20029;-78
2022/09/20 12:21:15;;;;;;;1.98;0.73;;;11.60;99.90;;;;;;5045602;28;20116;-79
2022/09/20 12:23:51;;;;;;;2.10;0.65;;;11.60;99.90;;;;;;5053862;28;20049;-77
2022/09/20 12:26:20;;;;;;;1.85;0.47;;;11.40;99.90;;;;;;5036302;28;20032;-77
2022/09/20 12:39:23;;;;;;;3.35;0.45;;;10.70;99.90;;;;;;4995789;28;20037;-78
2022/09/20 12:48:43;;;;;;;1.30;0.73;;;10.10;99.90;;;;;;4995610;28;20497;-78
2022/09/20 12:58:12;;;;;;;3.33;1.08;;;10.20;99.90;;;;;;4994962;28;20030;-78
2022/09/20 13:14:46;;;;;;;2.78;1.20;;;10.60;99.90;;;;;;5040398;28;20028;-79
2022/09/20 13:21:22;;;;;;;1.98;1.27;;;10.50;99.90;;;;;;5036295;28;20025;-78
2022/09/20 13:23:51;;;;;;;0.80;0.32;;;10.60;99.90;;;;;;5019406;28;20077;-78
2022/09/20 13:26:23;;;;;;;2.38;1.42;;;10.60;99.90;;;;;;5052505;28;20361;-79
2022/09/20 13:28:53;;;;;;;1.70;0.47;;;10.60;99.90;;;;;;5018554;28;20048;-79
2022/09/20 13:32:00;;;;;;;0.73;0.40;;;10.60;99.90;;;;;;5036444;28;20060;-79
2022/09/20 13:34:27;;;;;;;0.68;0.43;;;10.50;99.90;;;;;;5018671;28;20084;-78
2022/09/20 13:36:57;;;;;;;1.23;0.40;;;10.40;99.90;;;;;;5018280;28;20030;-79
2022/09/20 13:39:28;;;;;;;0.43;0.30;;;10.50;99.90;;;;;;5035958;28;20088;-77
2022/09/20 13:42:10;;;;;;;3.30;0.38;;;10.80;99.90;;;;;;5036039;28;20030;-78
2022/09/20 13:44:37;;;;;;;3.42;0.60;;;11.60;99.90;;;;;;5018716;28;20052;-77
2022/09/20 13:47:21;;;;;;;3.22;0.30;;;12.30;99.90;;;;;;5018525;28;20036;-78
2022/09/20 13:49:47;;;;;;;4.20;0.60;;;13.60;99.90;;;;;;5036383;28;20366;-78
2022/09/20 13:52:24;;;;;;;0.63;0.20;;;14.50;99.90;;;;;;5051253;28;20024;-79
2022/09/20 13:54:49;;;;;;;0.40;0.20;;;15.30;99.90;;;;;;5018033;28;20080;-78
2022/09/20 13:57:22;;;;;;;0.20;0.10;;;15.40;99.90;;;;;;5017765;28;20037;-78
2022/09/20 13:59:48;;;;;;;1.85;0.52;;;15.90;99.90;;;;;;5017971;28;20057;-78
2022/09/20 14:02:26;;;;;;;0.50;0.22;;;16.70;99.90;;;;;;5035084;28;20052;-78
2022/09/20 14:04:59;;;;;;;3.33;0.30;;;17.80;99.90;;;;;;5035551;28;20021;-79
2022/09/20 14:07:27;;;;;;;0.30;0.20;;;18.20;99.90;;;;;;5050713;28;20029;-78
2022/09/20 14:09:53;;;;;;;0.85;0.13;;;18.50;99.60;;;;;;5055075;28;20381;-77
2022/09/20 14:12:21;;;;;;;1.13;0.20;;;18.00;99.90;;;;;;5054985;28;20029;-76
2022/09/20 14:14:48;;;;;;;0.22;0.10;;;18.40;99.90;;;;;;5055016;28;20025;-75
2022/09/20 14:17:19;;;;;;;1.00;0.17;;;18.40;99.10;;;;;;5054875;28;20037;-78
2022/09/20 14:19:52;;;;;;;0.88;0.15;;;18.50;99.90;;;;;;5037109;28;20025;-76
2022/09/20 14:22:27;;;;;;;2.15;0.22;;;18.60;98.40;;;;;;5055056;28;20029;-57
2022/09/20 14:25:21;;;;;;;1.55;0.10;;;19.00;99.30;;;;;;5037226;28;20032;-58
2022/09/20 14:27:47;;;;;;;0.88;0.17;;;18.90;97.00;;;;;;5054317;28;20477;-57
2022/09/20 14:30:30;;;;;;;1.30;0.20;;;18.70;97.50;;;;;;5054702;28;20040;-74
2022/09/20 14:32:57;;;;;;;1.95;0.47;;;18.80;98.30;;;;;;5054861;28;20116;-74
2022/09/20 14:35:25;;;;;;;0.68;0.10;;;19.10;98.50;;;;;;5037533;28;20029;-75
2022/09/20 14:37:56;;;;;;;0.50;0.20;;;19.40;96.30;;;;;;5054877;28;20029;-74
2022/09/20 14:40:24;;;;;;;0.10;0.10;;;18.80;97.30;;;;;;5037147;28;20377;-75
2022/09/20 14:43:04;;;;;;;2.38;0.50;;;18.80;99.30;;;;;;5070355;28;20029;-73
2022/09/20 14:45:34;;;;;;;0.93;0.20;;;19.40;99.00;;;;;;5036740;28;20029;-74
2022/09/20 14:48:26;;;;;;;1.77;0.25;;;19.40;97.00;;;;;;5054800;28;20035;-73
2022/09/20 14:51:07;;;;;;;2.25;0.75;;;19.40;99.90;;;;;;5033134;28;20034;-74
2022/09/20 14:53:36;;;;;;;0.90;0.20;;;19.80;99.20;;;;;;5054656;28;20104;-73
2022/09/20 14:56:04;;;;;;;1.85;1.00;;;19.30;98.40;;;;;;5069568;28;20028;-75
2022/09/20 14:58:31;;;;;;;3.72;0.45;;;18.60;98.50;;;;;;5054998;28;20094;-74
2022/09/20 15:01:04;;;;;;;0.77;0.30;;;17.70;99.40;;;;;;5054446;28;20033;-74
2022/09/20 15:03:38;;;;;;;3.30;0.30;;;17.00;99.90;;;;;;5037168;28;20029;-77
2022/09/20 15:06:05;;;;;;;1.50;0.10;;;16.30;99.90;;;;;;5054234;28;20021;-75
2022/09/20 15:08:34;;;;;;;0.95;0.20;;;15.40;99.90;;;;;;5053773;28;20078;-75
2022/09/20 15:11:00;;;;;;;4.32;0.60;;;14.70;99.90;;;;;;5036397;28;20025;-76
2022/09/20 15:13:25;;;;;;;3.53;0.20;;;14.10;99.90;;;;;;5054693;28;20519;-77
2022/09/20 15:15:52;;;;;;;6.75;0.57;;;13.60;99.90;;;;;;5069567;28;20025;-77
2022/09/20 15:18:38;;;;;;;1.40;0.10;;;13.10;99.90;;;;;;5054513;28;20033;-80
2022/09/20 15:21:04;;;;;;;0.35;0.20;;;12.50;99.90;;;;;;5061660;28;20457;-80
2022/09/20 15:23:30;;;;;;;2.10;0.40;;;11.70;99.90;;;;;;5060111;28;20110;-77
2022/09/20 15:25:56;;;;;;;2.25;0.82;;;11.40;99.90;;;;;;5038511;28;20033;-77